createdAt,value
2023-04-03T00:00:42.095Z,1.76
2023-04-03T00:01:41.517Z,1.76
2023-04-03T00:02:41.653Z,1.75
2023-04-03T00:03:41.590Z,1.73
2023-04-03T00:04:41.630Z,1.73
2023-04-03T00:05:41.450Z,1.73
2023-04-03T00:06:41.443Z,1.75
2023-04-03T00:07:41.442Z,1.76
2023-04-03T00:08:41.646Z,1.75
2023-04-03T00:09:41.466Z,1.75
2023-04-03T00:10:41.410Z,1.75
2023-04-03T00:11:41.389Z,1.73
2023-04-03T00:12:41.380Z,1.73
2023-04-03T00:13:41.600Z,1.72
2023-04-03T00:14:41.395Z,1.72
2023-04-03T00:15:41.355Z,1.71
2023-04-03T00:16:41.359Z,1.69
2023-04-03T00:17:41.339Z,1.69
2023-04-03T00:18:41.352Z,1.72
2023-04-03T00:19:41.322Z,1.71
2023-04-03T00:20:41.306Z,1.72
2023-04-03T00:21:41.308Z,1.72
2023-04-03T00:22:41.276Z,1.71
2023-04-03T00:23:41.254Z,1.71
2023-04-03T00:24:41.244Z,1.71
2023-04-03T00:25:41.235Z,1.68
2023-04-03T00:26:41.242Z,1.68
2023-04-03T00:27:41.211Z,1.69
2023-04-03T00:28:41.261Z,1.69
2023-04-03T00:29:41.193Z,1.69
2023-04-03T00:30:41.213Z,1.68
2023-04-03T00:31:41.181Z,1.65
2023-04-03T00:32:41.203Z,1.62
2023-04-03T00:33:41.157Z,1.62
2023-04-03T00:34:41.129Z,1.60
2023-04-03T00:35:41.213Z,1.57
2023-04-03T00:36:41.250Z,1.55
2023-04-03T00:37:41.132Z,1.54
2023-04-03T00:38:41.126Z,1.51
2023-04-03T00:39:41.085Z,1.50
2023-04-03T00:40:41.074Z,1.50
2023-04-03T00:41:41.092Z,1.47
2023-04-03T00:42:41.084Z,1.50
2023-04-03T00:43:41.070Z,1.47
2023-04-03T00:44:41.048Z,1.47
2023-04-03T00:45:41.025Z,1.47
2023-04-03T00:46:41.077Z,1.47
2023-04-03T00:47:40.999Z,1.46
2023-04-03T00:48:40.982Z,1.44
2023-04-03T00:49:40.969Z,1.46
2023-04-03T00:50:40.986Z,1.47
2023-04-03T00:51:40.957Z,1.44
2023-04-03T00:52:40.933Z,1.44
2023-04-03T00:53:40.936Z,1.42
2023-04-03T00:54:40.927Z,1.39
2023-04-03T00:55:40.915Z,1.37
2023-04-03T00:56:40.915Z,1.36
2023-04-03T00:57:40.925Z,1.33
2023-04-03T00:58:40.883Z,1.34
2023-04-03T00:59:40.874Z,1.33
2023-04-03T01:00:40.857Z,1.34
2023-04-03T01:01:40.880Z,1.34
2023-04-03T01:02:40.885Z,1.34
2023-04-03T01:03:40.810Z,1.34
2023-04-03T01:04:40.890Z,1.34
2023-04-03T01:05:40.798Z,1.34
2023-04-03T01:06:40.793Z,1.36
2023-04-03T01:07:40.789Z,1.34
2023-04-03T01:08:40.790Z,1.34
2023-04-03T01:09:40.779Z,1.33
2023-04-03T01:10:40.744Z,1.29
2023-04-03T01:11:40.745Z,1.28
2023-04-03T01:12:40.735Z,1.28
2023-04-03T01:13:40.711Z,1.28
2023-04-03T01:14:40.751Z,1.28
2023-04-03T01:15:40.747Z,1.26
2023-04-03T01:16:40.689Z,1.25
2023-04-03T01:17:40.738Z,1.25
2023-04-03T01:18:40.666Z,1.24
2023-04-03T01:19:40.662Z,1.22
2023-04-03T01:20:40.690Z,1.21
2023-04-03T01:21:40.644Z,1.21
2023-04-03T01:22:40.615Z,1.21
2023-04-03T01:23:40.608Z,1.19
2023-04-03T01:24:40.616Z,1.19
2023-04-03T01:25:40.595Z,1.18
2023-04-03T01:26:40.618Z,1.18
2023-04-03T01:27:40.575Z,1.18
2023-04-03T01:28:40.559Z,1.18
2023-04-03T01:29:40.535Z,1.16
2023-04-03T01:30:40.546Z,1.15
2023-04-03T01:31:40.551Z,1.16
2023-04-03T01:32:40.570Z,1.15
2023-04-03T01:33:40.563Z,1.12
2023-04-03T01:34:40.529Z,1.12
2023-04-03T01:35:40.541Z,1.10
2023-04-03T01:36:40.485Z,1.07
2023-04-03T01:37:40.464Z,1.06
2023-04-03T01:38:40.520Z,1.04
2023-04-03T01:39:40.447Z,1.03
2023-04-03T01:40:40.423Z,1.01
2023-04-03T01:41:40.418Z,1.00
2023-04-03T01:42:40.403Z,0.98
2023-04-03T01:43:40.405Z,0.96
2023-04-03T01:44:40.440Z,0.96
2023-04-03T01:45:40.393Z,0.92
2023-04-03T01:46:40.379Z,0.90
2023-04-03T01:47:40.378Z,0.90
2023-04-03T01:48:40.340Z,0.89
2023-04-03T01:49:40.335Z,0.90
2023-04-03T01:50:40.384Z,0.90
2023-04-03T01:51:41.339Z,0.89
2023-04-03T01:52:40.297Z,0.88
2023-04-03T01:53:40.302Z,0.86
2023-04-03T01:54:40.280Z,0.83
2023-04-03T01:55:40.269Z,0.82
2023-04-03T01:56:40.291Z,0.82
2023-04-03T01:57:40.254Z,0.79
2023-04-03T01:58:40.274Z,0.80
2023-04-03T01:59:40.212Z,0.78
2023-04-03T02:00:40.222Z,0.79
2023-04-03T02:01:40.268Z,0.79
2023-04-03T02:02:40.362Z,0.79
2023-04-03T02:03:40.255Z,0.79
2023-04-03T02:04:40.169Z,0.79
2023-04-03T02:05:40.158Z,0.79
2023-04-03T02:06:40.195Z,0.78
2023-04-03T02:07:40.153Z,0.78
2023-04-03T02:08:40.151Z,0.79
2023-04-03T02:09:40.111Z,0.79
2023-04-03T02:10:40.107Z,0.79
2023-04-03T02:11:40.083Z,0.80
2023-04-03T02:12:40.079Z,0.80
2023-04-03T02:13:40.082Z,0.80
2023-04-03T02:14:40.104Z,0.80
2023-04-03T02:15:40.052Z,0.82
2023-04-03T02:16:40.066Z,0.80
2023-04-03T02:17:40.058Z,0.80
2023-04-03T02:18:40.082Z,0.80
2023-04-03T02:19:40.014Z,0.80
2023-04-03T02:20:40.198Z,0.79
2023-04-03T02:21:40.047Z,0.78
2023-04-03T02:22:39.975Z,0.78
2023-04-03T02:23:40.005Z,0.75
2023-04-03T02:24:39.953Z,0.72
2023-04-03T02:25:39.928Z,0.71
2023-04-03T02:26:39.960Z,0.72
2023-04-03T02:27:39.919Z,0.72
2023-04-03T02:28:39.934Z,0.76
2023-04-03T02:29:39.893Z,0.76
2023-04-03T02:30:40.106Z,0.75
2023-04-03T02:31:39.897Z,0.72
2023-04-03T02:32:39.942Z,0.71
2023-04-03T02:33:39.901Z,0.71
2023-04-03T02:34:39.866Z,0.70
2023-04-03T02:35:39.917Z,0.70
2023-04-03T02:36:39.874Z,0.70
2023-04-03T02:37:39.845Z,0.68
2023-04-03T02:38:39.905Z,0.67
2023-04-03T02:39:39.785Z,0.67
2023-04-03T02:40:39.991Z,0.65
2023-04-03T02:41:39.773Z,0.64
2023-04-03T02:42:39.755Z,0.64
2023-04-03T02:43:39.772Z,0.62
2023-04-03T02:44:39.790Z,0.64
2023-04-03T02:45:39.728Z,0.61
2023-04-03T02:46:39.718Z,0.60
2023-04-03T02:47:39.761Z,0.60
2023-04-03T02:48:39.706Z,0.61
2023-04-03T02:49:39.683Z,0.61
2023-04-03T02:50:39.679Z,0.61
2023-04-03T02:51:39.649Z,0.60
2023-04-03T02:52:39.641Z,0.60
2023-04-03T02:53:39.671Z,0.58
2023-04-03T02:54:39.627Z,0.57
2023-04-03T02:55:39.619Z,0.53
2023-04-03T02:56:39.604Z,0.57
2023-04-03T02:57:39.598Z,0.53
2023-04-03T02:58:39.611Z,0.53
2023-04-03T02:59:39.589Z,0.52
2023-04-03T03:00:39.812Z,0.49
2023-04-03T03:01:39.575Z,0.49
2023-04-03T03:02:39.668Z,0.48
2023-04-03T03:03:39.544Z,0.48
2023-04-03T03:04:39.575Z,0.48
2023-04-03T03:05:39.534Z,0.48
2023-04-03T03:06:39.501Z,0.48
2023-04-03T03:07:39.484Z,0.46
2023-04-03T03:08:39.490Z,0.46
2023-04-03T03:09:39.479Z,0.45
2023-04-03T03:10:39.714Z,0.45
2023-04-03T03:11:39.473Z,0.45
2023-04-03T03:12:39.451Z,0.45
2023-04-03T03:13:39.432Z,0.46
2023-04-03T03:14:39.404Z,0.43
2023-04-03T03:15:39.449Z,0.45
2023-04-03T03:16:39.400Z,0.42
2023-04-03T03:17:39.463Z,0.43
2023-04-03T03:18:39.393Z,0.45
2023-04-03T03:19:39.386Z,0.42
2023-04-03T03:20:39.349Z,0.41
2023-04-03T03:21:39.346Z,0.41
2023-04-03T03:22:39.329Z,0.41
2023-04-03T03:23:39.340Z,0.41
2023-04-03T03:24:39.318Z,0.39
2023-04-03T03:25:39.464Z,0.38
2023-04-03T03:26:39.300Z,0.38
2023-04-03T03:27:39.264Z,0.36
2023-04-03T03:28:39.273Z,0.36
2023-04-03T03:29:39.274Z,0.34
2023-04-03T03:30:39.260Z,0.31
2023-04-03T03:31:39.256Z,0.31
2023-04-03T03:32:39.257Z,0.31
2023-04-03T03:33:39.280Z,0.33
2023-04-03T03:34:39.194Z,0.30
2023-04-03T03:35:39.506Z,0.30
2023-04-03T03:36:39.172Z,0.31
2023-04-03T03:37:39.162Z,0.30
2023-04-03T03:38:39.183Z,0.31
2023-04-03T03:39:39.145Z,0.31
2023-04-03T03:40:39.145Z,0.31
2023-04-03T03:41:39.128Z,0.33
2023-04-03T03:42:39.116Z,0.31
2023-04-03T03:43:39.116Z,0.30
2023-04-03T03:44:39.088Z,0.31
2023-04-03T03:45:39.386Z,0.30
2023-04-03T03:46:39.089Z,0.30
2023-04-03T03:47:39.066Z,0.30
2023-04-03T03:48:39.066Z,0.28
2023-04-03T03:49:39.091Z,0.25
2023-04-03T03:50:39.087Z,0.24
2023-04-03T03:51:39.026Z,0.25
2023-04-03T03:52:39.006Z,0.25
2023-04-03T03:53:39.028Z,0.25
2023-04-03T03:54:38.979Z,0.25
2023-04-03T03:55:39.301Z,0.25
2023-04-03T03:56:38.961Z,0.23
2023-04-03T03:57:38.947Z,0.23
2023-04-03T03:58:38.954Z,0.23
2023-04-03T03:59:38.926Z,0.23
2023-04-03T04:00:38.936Z,0.24
2023-04-03T04:01:38.954Z,0.21
2023-04-03T04:02:39.082Z,0.20
2023-04-03T04:03:39.000Z,0.20
2023-04-03T04:04:38.876Z,0.16
2023-04-03T04:05:39.228Z,0.16
2023-04-03T04:06:38.884Z,0.16
2023-04-03T04:07:38.887Z,0.16
2023-04-03T04:08:38.924Z,0.16
2023-04-03T04:09:38.862Z,0.16
2023-04-03T04:10:38.829Z,0.16
2023-04-03T04:11:38.823Z,0.15
2023-04-03T04:12:38.862Z,0.15
2023-04-03T04:13:38.806Z,0.10
2023-04-03T04:14:38.791Z,0.07
2023-04-03T04:15:39.046Z,0.07
2023-04-03T04:16:38.771Z,0.06
2023-04-03T04:17:38.787Z,0.06
2023-04-03T04:18:38.731Z,0.05
2023-04-03T04:19:38.730Z,0.03
2023-04-03T04:20:38.722Z,0.03
2023-04-03T04:21:38.740Z,0.02
2023-04-03T04:22:38.681Z,0.02
2023-04-03T04:23:38.695Z,0.00
2023-04-03T04:24:39.860Z,-0.01
2023-04-03T04:25:38.845Z,-0.01
2023-04-03T04:26:38.676Z,-0.04
2023-04-03T04:27:38.662Z,-0.01
2023-04-03T04:28:38.648Z,-0.04
2023-04-03T04:29:38.603Z,-0.04
2023-04-03T04:30:38.639Z,-0.01
2023-04-03T04:31:38.599Z,-0.01
2023-04-03T04:32:38.604Z,0.00
2023-04-03T04:33:38.573Z,-0.01
2023-04-03T04:34:38.588Z,-0.01
2023-04-03T04:35:38.966Z,-0.04
2023-04-03T04:36:38.614Z,-0.04
2023-04-03T04:37:45.081Z,-0.06
2023-04-03T04:38:38.524Z,-0.06
2023-04-03T04:39:38.487Z,-0.04
2023-04-03T04:40:38.493Z,-0.08
2023-04-03T04:41:38.473Z,-0.06
2023-04-03T04:42:38.481Z,-0.08
2023-04-03T04:43:38.474Z,-0.06
2023-04-03T04:44:38.470Z,-0.06
2023-04-03T04:45:38.796Z,-0.06
2023-04-03T04:46:38.501Z,-0.06
2023-04-03T04:47:38.447Z,-0.06
2023-04-03T04:48:38.439Z,-0.08
2023-04-03T04:49:38.444Z,-0.09
2023-04-03T04:50:38.380Z,-0.09
2023-04-03T04:51:50.900Z,-0.09
2023-04-03T04:52:38.372Z,-0.09
2023-04-03T04:53:38.350Z,-0.09
2023-04-03T04:54:38.357Z,-0.08
2023-04-03T04:55:38.632Z,-0.09
2023-04-03T04:56:38.319Z,-0.08
2023-04-03T04:57:38.423Z,-0.09
2023-04-03T04:58:38.299Z,-0.09
2023-04-03T04:59:38.315Z,-0.09
2023-04-03T05:00:38.276Z,-0.09
2023-04-03T05:01:38.356Z,-0.09
2023-04-03T05:02:38.267Z,-0.09
2023-04-03T05:03:38.275Z,-0.09
2023-04-03T05:04:38.256Z,-0.09
2023-04-03T05:05:38.659Z,-0.08
2023-04-03T05:06:38.213Z,-0.09
2023-04-03T05:07:38.193Z,-0.08
2023-04-03T05:08:38.242Z,-0.08
2023-04-03T05:09:38.235Z,-0.08
2023-04-03T05:10:38.216Z,-0.08
2023-04-03T05:11:38.152Z,-0.06
2023-04-03T05:12:38.276Z,-0.06
2023-04-03T05:13:38.269Z,-0.06
2023-04-03T05:14:38.249Z,-0.06
2023-04-03T05:15:38.405Z,-0.06
2023-04-03T05:16:38.123Z,-0.06
2023-04-03T05:17:38.126Z,-0.05
2023-04-03T05:18:38.109Z,-0.05
2023-04-03T05:19:38.101Z,-0.05
2023-04-03T05:20:38.065Z,-0.05
2023-04-03T05:21:38.060Z,-0.04
2023-04-03T05:22:38.042Z,-0.05
2023-04-03T05:23:38.016Z,-0.04
2023-04-03T05:24:38.028Z,-0.01
2023-04-03T05:25:38.410Z,-0.01
2023-04-03T05:26:37.991Z,-0.04
2023-04-03T05:27:38.004Z,-0.01
2023-04-03T05:28:37.976Z,-0.04
2023-04-03T05:29:37.998Z,-0.05
2023-04-03T05:30:37.957Z,-0.05
2023-04-03T05:31:38.050Z,-0.04
2023-04-03T05:32:37.953Z,-0.04
2023-04-03T05:33:37.922Z,-0.04
2023-04-03T05:34:37.957Z,-0.04
2023-04-03T05:35:38.116Z,-0.04
2023-04-03T05:36:37.887Z,-0.04
2023-04-03T05:37:37.875Z,-0.01
2023-04-03T05:38:37.877Z,-0.01
2023-04-03T05:39:37.875Z,0.00
2023-04-03T05:40:37.849Z,0.00
2023-04-03T05:41:37.838Z,0.00
2023-04-03T05:42:37.813Z,0.02
2023-04-03T05:43:37.928Z,0.00
2023-04-03T05:44:37.849Z,0.02
2023-04-03T05:45:37.812Z,0.02
2023-04-03T05:46:37.776Z,0.03
2023-04-03T05:47:37.787Z,0.02
2023-04-03T05:48:37.751Z,0.05
2023-04-03T05:49:37.765Z,0.06
2023-04-03T05:50:37.730Z,0.06
2023-04-03T05:51:37.745Z,0.05
2023-04-03T05:52:37.725Z,0.07
2023-04-03T05:53:37.747Z,0.09
2023-04-03T05:54:37.708Z,0.09
2023-04-03T05:55:37.844Z,0.09
2023-04-03T05:56:37.694Z,0.10
2023-04-03T05:57:37.747Z,0.10
2023-04-03T05:58:37.644Z,0.10
2023-04-03T05:59:37.662Z,0.10
2023-04-03T06:00:37.625Z,0.10
2023-04-03T06:01:37.632Z,0.10
2023-04-03T06:02:37.671Z,0.10
2023-04-03T06:03:39.991Z,0.13
2023-04-03T06:04:37.787Z,0.13
2023-04-03T06:05:37.849Z,0.15
2023-04-03T06:06:37.559Z,0.16
2023-04-03T06:07:37.557Z,0.16
2023-04-03T06:08:37.548Z,0.18
2023-04-03T06:09:37.562Z,0.18
2023-04-03T06:10:37.648Z,0.20
2023-04-03T06:11:37.512Z,0.21
2023-04-03T06:12:37.501Z,0.23
2023-04-03T06:13:37.491Z,0.24
2023-04-03T06:14:37.507Z,0.23
2023-04-03T06:15:37.461Z,0.24
2023-04-03T06:16:39.523Z,0.25
2023-04-03T06:17:37.489Z,0.25
2023-04-03T06:18:37.435Z,0.28
2023-04-03T06:19:37.473Z,0.30
2023-04-03T06:20:37.632Z,0.30
2023-04-03T06:21:37.397Z,0.33
2023-04-03T06:22:37.395Z,0.34
2023-04-03T06:23:37.454Z,0.36
2023-04-03T06:24:37.390Z,0.38
2023-04-03T06:25:37.359Z,0.39
2023-04-03T06:26:37.372Z,0.41
2023-04-03T06:27:37.351Z,0.41
2023-04-03T06:28:37.335Z,0.42
2023-04-03T06:29:37.337Z,0.45
2023-04-03T06:30:37.434Z,0.46
2023-04-03T06:31:37.348Z,0.46
2023-04-03T06:32:37.284Z,0.48
2023-04-03T06:33:37.300Z,0.49
2023-04-03T06:34:37.308Z,0.49
2023-04-03T06:35:37.268Z,0.51
2023-04-03T06:36:37.247Z,0.52
2023-04-03T06:37:37.228Z,0.52
2023-04-03T06:38:37.245Z,0.57
2023-04-03T06:39:37.236Z,0.58
2023-04-03T06:40:37.331Z,0.60
2023-04-03T06:41:37.370Z,0.61
2023-04-03T06:42:37.165Z,0.64
2023-04-03T06:43:37.161Z,0.65
2023-04-03T06:44:37.184Z,0.70
2023-04-03T06:45:37.347Z,0.72
2023-04-03T06:46:37.167Z,0.75
2023-04-03T06:47:37.136Z,0.80
2023-04-03T06:48:37.107Z,0.83
2023-04-03T06:49:37.120Z,0.86
2023-04-03T06:50:37.093Z,0.89
2023-04-03T06:51:37.078Z,0.92
2023-04-03T06:52:37.061Z,0.97
2023-04-03T06:53:37.069Z,1.01
2023-04-03T06:54:37.112Z,1.04
2023-04-03T06:55:37.415Z,1.12
2023-04-03T06:56:37.028Z,1.15
2023-04-03T06:57:37.114Z,1.19
2023-04-03T06:58:37.007Z,1.22
2023-04-03T06:59:37.005Z,1.25
2023-04-03T07:00:36.983Z,1.29
2023-04-03T07:01:36.978Z,1.33
2023-04-03T07:02:36.990Z,1.36
2023-04-03T07:03:36.961Z,1.39
2023-04-03T07:04:36.985Z,1.42
2023-04-03T07:05:37.299Z,1.43
2023-04-03T07:06:36.911Z,1.47
2023-04-03T07:07:36.908Z,1.50
2023-04-03T07:08:36.893Z,1.54
2023-04-03T07:09:36.909Z,1.60
2023-04-03T07:10:36.881Z,1.71
2023-04-03T07:11:36.881Z,1.79
2023-04-03T07:12:36.848Z,1.90
2023-04-03T07:13:36.839Z,1.94
2023-04-03T07:14:36.891Z,2.02
2023-04-03T07:15:37.160Z,2.06
2023-04-03T07:16:37.060Z,2.09
2023-04-03T07:17:36.856Z,2.12
2023-04-03T07:18:36.825Z,2.15
2023-04-03T07:19:36.796Z,2.15
2023-04-03T07:20:36.772Z,2.17
2023-04-03T07:21:36.769Z,2.19
2023-04-03T07:22:36.774Z,2.22
2023-04-03T07:23:36.737Z,2.23
2023-04-03T07:24:36.754Z,2.30
2023-04-03T07:25:36.861Z,2.34
2023-04-03T07:26:36.701Z,2.41
2023-04-03T07:27:36.706Z,2.46
2023-04-03T07:28:36.680Z,2.52
2023-04-03T07:29:36.712Z,2.56
2023-04-03T07:30:36.674Z,2.71
2023-04-03T07:31:36.648Z,2.79
2023-04-03T07:32:36.685Z,2.87
2023-04-03T07:33:36.626Z,2.92
2023-04-03T07:34:36.645Z,2.97
2023-04-03T07:35:36.862Z,3.02
2023-04-03T07:36:36.595Z,3.03
2023-04-03T07:37:36.598Z,3.07
2023-04-03T07:38:36.582Z,3.09
2023-04-03T07:39:36.584Z,3.10
2023-04-03T07:40:36.582Z,3.13
2023-04-03T07:41:36.541Z,3.15
2023-04-03T07:42:36.536Z,3.16
2023-04-03T07:43:36.521Z,3.20
2023-04-03T07:44:36.550Z,3.23
2023-04-03T07:45:36.690Z,3.23
2023-04-03T07:46:36.483Z,3.25
2023-04-03T07:47:36.568Z,3.30
2023-04-03T07:48:36.473Z,3.39
2023-04-03T07:49:36.464Z,3.44
2023-04-03T07:50:36.443Z,3.49
2023-04-03T07:51:36.456Z,3.57
2023-04-03T07:52:36.427Z,3.61
2023-04-03T07:53:36.413Z,3.64
2023-04-03T07:54:36.422Z,3.68
2023-04-03T07:55:36.727Z,3.75
2023-04-03T07:56:36.373Z,3.79
2023-04-03T07:57:36.432Z,3.83
2023-04-03T07:58:36.351Z,3.86
2023-04-03T07:59:36.391Z,3.90
2023-04-03T08:00:36.342Z,4.06
2023-04-03T08:01:36.349Z,4.19
2023-04-03T08:02:36.337Z,4.28
2023-04-03T08:03:36.345Z,4.34
2023-04-03T08:04:36.364Z,4.39
2023-04-03T08:05:36.540Z,4.39
2023-04-03T08:06:45.912Z,4.39
2023-04-03T08:07:36.256Z,4.43
2023-04-03T08:08:36.257Z,4.47
2023-04-03T08:09:36.542Z,4.54
2023-04-03T08:10:36.246Z,4.61
2023-04-03T08:11:36.231Z,4.69
2023-04-03T08:12:36.203Z,4.79
2023-04-03T08:13:36.254Z,4.92
2023-04-03T08:14:36.200Z,5.02
2023-04-03T08:15:36.476Z,5.12
2023-04-03T08:16:36.206Z,5.23
2023-04-03T08:17:36.190Z,5.34
2023-04-03T08:18:36.131Z,5.46
2023-04-03T08:19:36.180Z,5.56
2023-04-03T08:20:36.116Z,5.67
2023-04-03T08:21:36.104Z,5.74
2023-04-03T08:22:36.104Z,5.89
2023-04-03T08:23:36.103Z,5.92
2023-04-03T08:24:36.487Z,5.88
2023-04-03T08:25:36.308Z,5.85
2023-04-03T08:26:36.052Z,5.82
2023-04-03T08:27:37.003Z,5.82
2023-04-03T08:28:36.053Z,5.81
2023-04-03T08:29:36.037Z,5.74
2023-04-03T08:30:36.037Z,5.70
2023-04-03T08:31:36.010Z,5.68
2023-04-03T08:32:36.054Z,5.71
2023-04-03T08:33:35.970Z,5.74
2023-04-03T08:34:35.979Z,5.75
2023-04-03T08:35:37.631Z,5.81
2023-04-03T08:36:35.934Z,5.82
2023-04-03T08:37:35.958Z,5.88
2023-04-03T08:38:35.924Z,5.91
2023-04-03T08:39:35.923Z,5.93
2023-04-03T08:40:35.901Z,5.92
2023-04-03T08:41:35.895Z,5.92
2023-04-03T08:42:35.873Z,5.93
2023-04-03T08:43:35.886Z,5.98
2023-04-03T08:44:35.873Z,6.01
2023-04-03T08:45:36.103Z,6.03
2023-04-03T08:46:35.940Z,6.03
2023-04-03T08:47:35.903Z,6.03
2023-04-03T08:48:35.831Z,6.06
2023-04-03T08:49:35.857Z,6.10
2023-04-03T08:50:36.201Z,6.10
2023-04-03T08:51:35.779Z,6.14
2023-04-03T08:52:35.776Z,6.16
2023-04-03T08:53:35.773Z,6.22
2023-04-03T08:54:35.786Z,6.26
2023-04-03T08:55:35.999Z,6.30
2023-04-03T08:56:35.745Z,6.30
2023-04-03T08:57:35.766Z,6.28
2023-04-03T08:58:35.701Z,6.22
2023-04-03T08:59:35.696Z,6.28
2023-04-03T09:00:35.691Z,6.30
2023-04-03T09:01:35.693Z,6.35
2023-04-03T09:02:35.694Z,6.36
2023-04-03T09:03:35.681Z,6.38
2023-04-03T09:04:35.667Z,6.36
2023-04-03T09:05:35.741Z,6.38
2023-04-03T09:06:35.611Z,6.36
2023-04-03T09:07:35.605Z,6.38
2023-04-03T09:08:35.605Z,6.44
2023-04-03T09:09:35.583Z,6.50
2023-04-03T09:10:35.750Z,6.54
2023-04-03T09:11:35.577Z,6.56
2023-04-03T09:12:35.560Z,6.59
2023-04-03T09:13:35.561Z,6.61
2023-04-03T09:14:35.539Z,6.59
2023-04-03T09:15:38.995Z,6.61
2023-04-03T09:16:35.565Z,6.61
2023-04-03T09:17:35.604Z,6.61
2023-04-03T09:18:35.521Z,6.61
2023-04-03T09:19:35.563Z,6.63
2023-04-03T09:20:35.728Z,6.66
2023-04-03T09:21:35.448Z,6.63
2023-04-03T09:22:41.993Z,6.62
2023-04-03T09:23:35.459Z,6.61
2023-04-03T09:24:35.439Z,6.61
2023-04-03T09:25:35.433Z,6.62
2023-04-03T09:26:35.423Z,6.62
2023-04-03T09:27:35.436Z,6.62
2023-04-03T09:28:39.190Z,6.63
2023-04-03T09:29:35.388Z,6.58
2023-04-03T09:30:35.452Z,6.51
2023-04-03T09:31:35.402Z,6.46
2023-04-03T09:32:35.376Z,6.38
2023-04-03T09:33:35.338Z,6.32
2023-04-03T09:34:35.352Z,6.26
2023-04-03T09:35:44.965Z,6.18
2023-04-03T09:36:35.473Z,6.10
2023-04-03T09:37:35.336Z,6.11
2023-04-03T09:38:35.271Z,6.19
2023-04-03T09:39:35.315Z,6.22
2023-04-03T09:40:35.821Z,6.29
2023-04-03T09:41:35.253Z,6.30
2023-04-03T09:42:35.231Z,6.43
2023-04-03T09:43:35.226Z,6.53
2023-04-03T09:44:35.221Z,6.68
2023-04-03T09:45:35.208Z,6.83
2023-04-03T09:46:35.221Z,7.04
2023-04-03T09:47:35.195Z,7.22
2023-04-03T09:48:35.158Z,7.35
2023-04-03T09:49:35.142Z,7.47
2023-04-03T09:50:35.205Z,7.56
2023-04-03T09:51:35.121Z,7.63
2023-04-03T09:52:35.137Z,7.74
2023-04-03T09:53:35.109Z,7.84
2023-04-03T09:54:35.103Z,7.90
2023-04-03T09:55:35.116Z,7.96
2023-04-03T09:56:35.081Z,8.04
2023-04-03T09:57:35.144Z,8.15
2023-04-03T09:58:43.138Z,8.26
2023-04-03T09:59:35.063Z,8.28
2023-04-03T10:00:35.050Z,8.30
2023-04-03T10:01:35.066Z,8.35
2023-04-03T10:02:35.049Z,8.32
2023-04-03T10:03:34.995Z,8.33
2023-04-03T10:04:35.090Z,8.28
2023-04-03T10:05:35.033Z,8.30
2023-04-03T10:06:34.958Z,8.36
2023-04-03T10:07:34.966Z,8.42
2023-04-03T10:08:34.936Z,8.44
2023-04-03T10:09:34.983Z,8.32
2023-04-03T10:10:34.948Z,8.35
2023-04-03T10:11:34.916Z,8.42
2023-04-03T10:12:34.893Z,8.51
2023-04-03T10:13:41.979Z,8.54
2023-04-03T10:14:34.903Z,8.65
2023-04-03T10:15:34.896Z,8.73
2023-04-03T10:16:34.909Z,8.86
2023-04-03T10:17:34.847Z,8.94
2023-04-03T10:18:34.885Z,9.02
2023-04-03T10:19:34.831Z,9.04
2023-04-03T10:20:34.841Z,9.18
2023-04-03T10:21:34.809Z,9.24
2023-04-03T10:22:34.781Z,9.24
2023-04-03T10:23:34.805Z,9.23
2023-04-03T10:24:34.785Z,9.25
2023-04-03T10:25:34.766Z,9.27
2023-04-03T10:26:34.778Z,9.20
2023-04-03T10:27:34.756Z,9.23
2023-04-03T10:28:34.797Z,9.24
2023-04-03T10:29:34.711Z,9.28
2023-04-03T10:30:34.831Z,9.34
2023-04-03T10:31:34.797Z,9.28
2023-04-03T10:32:34.719Z,9.34
2023-04-03T10:33:34.667Z,9.38
2023-04-03T10:34:34.680Z,9.38
2023-04-03T10:35:34.728Z,9.49
2023-04-03T10:36:34.631Z,9.46
2023-04-03T10:37:42.234Z,9.58
2023-04-03T10:38:34.602Z,9.73
2023-04-03T10:39:34.597Z,9.93
2023-04-03T10:40:34.610Z,10.07
2023-04-03T10:41:34.739Z,10.01
2023-04-03T10:42:34.572Z,10.04
2023-04-03T10:43:34.564Z,10.09
2023-04-03T10:44:34.540Z,10.07
2023-04-03T10:45:34.597Z,10.10
2023-04-03T10:46:34.597Z,10.14
2023-04-03T10:47:36.029Z,10.15
2023-04-03T10:48:34.521Z,10.18
2023-04-03T10:49:34.487Z,10.21
2023-04-03T10:50:34.490Z,10.17
2023-04-03T10:51:34.465Z,10.14
2023-04-03T10:52:34.470Z,10.07
2023-04-03T10:53:34.446Z,10.14
2023-04-03T10:54:34.426Z,10.14
2023-04-03T10:55:34.429Z,10.12
2023-04-03T10:56:34.409Z,10.15
2023-04-03T10:57:34.427Z,10.17
2023-04-03T10:58:34.396Z,10.18
2023-04-03T10:59:34.379Z,10.26
2023-04-03T11:00:34.383Z,10.30
2023-04-03T11:01:34.357Z,10.39
2023-04-03T11:02:34.440Z,10.52
2023-04-03T11:03:34.434Z,10.47
2023-04-03T11:04:34.367Z,10.44
2023-04-03T11:05:34.335Z,10.30
2023-04-03T11:06:34.311Z,10.01
2023-04-03T11:07:34.296Z,9.94
2023-04-03T11:08:34.343Z,9.99
2023-04-03T11:09:34.267Z,9.97
2023-04-03T11:10:34.278Z,9.86
2023-04-03T11:11:34.257Z,9.91
2023-04-03T11:12:34.246Z,9.97
2023-04-03T11:13:34.240Z,10.01
2023-04-03T11:14:34.225Z,10.09
2023-04-03T11:15:34.217Z,10.15
2023-04-03T11:16:43.346Z,10.26
2023-04-03T11:17:34.214Z,10.40
2023-04-03T11:18:34.173Z,10.36
2023-04-03T11:19:34.164Z,10.22
2023-04-03T11:20:34.528Z,9.99
2023-04-03T11:21:34.145Z,9.76
2023-04-03T11:22:34.120Z,9.82
2023-04-03T11:23:45.958Z,9.81
2023-04-03T11:24:34.107Z,9.79
2023-04-03T11:25:34.129Z,9.76
2023-04-03T11:26:34.089Z,9.81
2023-04-03T11:27:34.071Z,9.81
2023-04-03T11:28:34.057Z,9.93
2023-04-03T11:29:35.813Z,10.06
2023-04-03T11:30:34.051Z,10.17
2023-04-03T11:31:34.090Z,10.28
2023-04-03T11:32:34.031Z,10.44
2023-04-03T11:33:34.002Z,10.47
2023-04-03T11:34:34.004Z,10.25
2023-04-03T11:35:34.073Z,10.12
2023-04-03T11:36:37.318Z,9.99
2023-04-03T11:37:33.969Z,9.93
2023-04-03T11:38:33.947Z,9.93
2023-04-03T11:39:33.998Z,9.86
2023-04-03T11:40:33.952Z,9.71
2023-04-03T11:41:33.905Z,9.61
2023-04-03T11:42:33.975Z,9.53
2023-04-03T11:43:33.886Z,9.39
2023-04-03T11:44:33.879Z,9.38
2023-04-03T11:45:33.912Z,9.32
2023-04-03T11:46:33.890Z,9.32
2023-04-03T11:47:33.875Z,9.38
2023-04-03T11:48:33.870Z,9.49
2023-04-03T11:49:33.828Z,9.67
2023-04-03T11:50:33.830Z,9.79
2023-04-03T11:51:33.798Z,9.86
2023-04-03T11:52:33.779Z,9.85
2023-04-03T11:53:33.776Z,9.94
2023-04-03T11:54:38.642Z,9.94
2023-04-03T11:55:33.778Z,9.96
2023-04-03T11:56:33.738Z,10.01
2023-04-03T11:57:33.780Z,10.12
2023-04-03T11:58:33.745Z,10.21
2023-04-03T11:59:33.702Z,10.32
2023-04-03T12:00:33.707Z,10.42
2023-04-03T12:01:33.680Z,10.53
2023-04-03T12:02:36.347Z,10.68
2023-04-03T12:03:33.705Z,10.76
2023-04-03T12:04:34.428Z,10.86
2023-04-03T12:05:33.671Z,10.91
2023-04-03T12:06:33.626Z,10.95
2023-04-03T12:07:33.617Z,10.98
2023-04-03T12:08:33.603Z,10.94
2023-04-03T12:09:33.670Z,10.91
2023-04-03T12:10:33.621Z,10.89
2023-04-03T12:11:33.576Z,10.68
2023-04-03T12:12:33.562Z,10.43
2023-04-03T12:13:33.540Z,10.19
2023-04-03T12:14:33.540Z,9.97
2023-04-03T12:15:33.544Z,9.73
2023-04-03T12:16:33.561Z,9.67
2023-04-03T12:17:33.528Z,9.63
2023-04-03T12:18:33.488Z,9.57
2023-04-03T12:19:42.538Z,9.58
2023-04-03T12:20:33.485Z,9.67
2023-04-03T12:21:33.458Z,9.78
2023-04-03T12:22:33.440Z,9.89
2023-04-03T12:23:33.434Z,9.99
2023-04-03T12:24:33.434Z,10.01
2023-04-03T12:25:33.435Z,10.07
2023-04-03T12:26:42.148Z,10.14
2023-04-03T12:27:33.408Z,10.25
2023-04-03T12:28:33.436Z,10.37
2023-04-03T12:29:33.406Z,10.53
2023-04-03T12:30:33.408Z,10.65
2023-04-03T12:31:33.403Z,10.77
2023-04-03T12:32:33.383Z,10.92
2023-04-03T12:33:33.388Z,11.06
2023-04-03T12:34:33.323Z,11.14
2023-04-03T12:35:33.357Z,11.29
2023-04-03T12:36:33.297Z,11.43
2023-04-03T12:37:33.282Z,11.57
2023-04-03T12:38:33.271Z,11.61
2023-04-03T12:39:33.253Z,11.67
2023-04-03T12:40:33.277Z,11.54
2023-04-03T12:41:33.239Z,11.35
2023-04-03T12:42:33.234Z,11.14
2023-04-03T12:43:33.220Z,11.02
2023-04-03T12:44:33.229Z,10.81
2023-04-03T12:45:33.264Z,10.66
2023-04-03T12:46:33.283Z,10.51
2023-04-03T12:47:33.193Z,10.26
2023-04-03T12:48:33.195Z,10.06
2023-04-03T12:49:33.152Z,9.94
2023-04-03T12:50:33.163Z,9.89
2023-04-03T12:51:33.140Z,9.83
2023-04-03T12:52:33.122Z,9.96
2023-04-03T12:53:33.118Z,9.93
2023-04-03T12:54:33.094Z,10.04
2023-04-03T12:55:33.097Z,10.04
2023-04-03T12:56:33.672Z,10.04
2023-04-03T12:57:33.363Z,10.19
2023-04-03T12:58:33.067Z,10.33
2023-04-03T12:59:33.049Z,10.43
2023-04-03T13:00:33.057Z,10.58
2023-04-03T13:01:33.023Z,10.63
2023-04-03T13:02:33.113Z,10.77
2023-04-03T13:03:33.082Z,10.91
2023-04-03T13:04:33.006Z,11.03
2023-04-03T13:05:35.215Z,11.11
2023-04-03T13:06:32.974Z,11.11
2023-04-03T13:07:32.975Z,11.27
2023-04-03T13:08:32.943Z,11.43
2023-04-03T13:09:32.942Z,11.59
2023-04-03T13:10:32.948Z,11.70
2023-04-03T13:11:32.924Z,11.74
2023-04-03T13:12:32.900Z,11.77